createdAt,value
2023-02-02T00:00:29.914Z,6.10
2023-02-02T00:02:57.105Z,5.57
2023-02-02T00:05:26.958Z,5.75
2023-02-02T00:07:54.035Z,4.53
2023-02-02T00:10:20.979Z,4.80
2023-02-02T00:12:49.290Z,3.75
2023-02-02T00:15:16.464Z,3.88
2023-02-02T00:17:43.406Z,3.58
2023-02-02T00:20:11.397Z,3.85
2023-02-02T00:22:38.344Z,3.20
2023-02-02T00:25:05.928Z,3.55
2023-02-02T00:27:32.855Z,3.65
2023-02-02T00:30:01.239Z,3.85
2023-02-02T00:32:28.150Z,3.97
2023-02-02T00:34:55.047Z,3.75
2023-02-02T00:37:22.005Z,3.55
2023-02-02T00:39:48.914Z,3.75
2023-02-02T00:42:15.841Z,4.50
2023-02-02T00:45:01.329Z,4.15
2023-02-02T00:47:29.677Z,4.90
2023-02-02T00:49:56.608Z,4.05
2023-02-02T00:52:23.591Z,4.13
2023-02-02T00:54:50.547Z,3.78
2023-02-02T00:57:17.459Z,3.10
2023-02-02T00:59:44.366Z,2.88
2023-02-02T01:02:12.344Z,2.47
2023-02-02T01:04:41.079Z,2.53
2023-02-02T01:07:08.518Z,3.03
2023-02-02T01:09:35.431Z,2.72
2023-02-02T01:12:03.126Z,2.90
2023-02-02T01:14:31.046Z,3.00
2023-02-02T01:16:57.950Z,2.83
2023-02-02T01:19:26.273Z,2.70
2023-02-02T01:21:54.558Z,2.40
2023-02-02T01:24:24.045Z,2.58
2023-02-02T01:26:51.004Z,2.20
2023-02-02T01:29:20.392Z,2.50
2023-02-02T01:31:48.210Z,2.10
2023-02-02T01:34:15.254Z,2.60
2023-02-02T01:36:42.173Z,2.78
2023-02-02T01:39:10.647Z,3.00
2023-02-02T01:41:37.703Z,3.67
2023-02-02T01:44:06.257Z,2.90
2023-02-02T01:46:34.918Z,3.28
2023-02-02T01:49:07.678Z,3.00
2023-02-02T01:51:40.753Z,3.08
2023-02-02T01:54:14.092Z,3.50
2023-02-02T01:56:47.192Z,2.83
2023-02-02T01:59:16.328Z,2.35
2023-02-02T02:01:45.322Z,2.95
2023-02-02T02:04:12.378Z,3.00
2023-02-02T02:06:39.721Z,3.20
2023-02-02T02:09:07.616Z,3.20
2023-02-02T02:11:36.632Z,2.58
2023-02-02T02:14:24.548Z,2.75
2023-02-02T02:17:15.624Z,2.72
2023-02-02T02:20:52.444Z,2.90
2023-02-02T02:24:13.342Z,2.83
2023-02-02T02:27:03.014Z,3.03
2023-02-02T02:30:01.185Z,2.83
2023-02-02T02:32:39.374Z,3.22
2023-02-02T02:35:13.884Z,3.10
2023-02-02T02:37:48.882Z,3.28
2023-02-02T02:40:23.199Z,3.30
2023-02-02T02:42:54.182Z,3.37
2023-02-02T02:45:23.459Z,3.45
2023-02-02T02:47:52.963Z,3.35
2023-02-02T02:50:21.359Z,3.30
2023-02-02T02:52:49.945Z,2.97
2023-02-02T02:55:17.467Z,2.83
2023-02-02T02:58:01.807Z,3.08
2023-02-02T03:00:54.513Z,3.03
2023-02-02T03:03:33.713Z,3.33
2023-02-02T03:06:08.307Z,3.00
2023-02-02T03:08:40.713Z,2.97
2023-02-02T03:11:11.069Z,3.20
2023-02-02T03:13:39.596Z,3.25
2023-02-02T03:16:07.032Z,3.65
2023-02-02T03:18:35.547Z,2.90
2023-02-02T03:21:02.858Z,2.88
2023-02-02T03:23:29.927Z,3.50
2023-02-02T03:25:56.882Z,3.28
2023-02-02T03:28:25.538Z,2.90
2023-02-02T03:30:55.026Z,3.47
2023-02-02T03:33:22.343Z,3.13
2023-02-02T03:35:50.779Z,3.00
2023-02-02T03:38:17.765Z,2.70
2023-02-02T03:40:44.759Z,2.92
2023-02-02T03:43:20.590Z,2.60
2023-02-02T03:45:55.813Z,3.00
2023-02-02T03:48:23.112Z,2.85
2023-02-02T03:50:51.507Z,2.78
2023-02-02T03:53:21.631Z,2.97
2023-02-02T03:55:49.092Z,3.03
2023-02-02T03:58:16.002Z,3.13
2023-02-02T04:00:43.146Z,2.55
2023-02-02T04:03:10.081Z,2.65
2023-02-02T04:05:36.995Z,2.53
2023-02-02T04:08:05.654Z,2.33
2023-02-02T04:10:32.595Z,2.80
2023-02-02T04:12:59.499Z,2.83
2023-02-02T04:15:26.781Z,2.75
2023-02-02T04:17:53.833Z,3.20
2023-02-02T04:20:20.777Z,3.42
2023-02-02T04:22:47.754Z,3.05
2023-02-02T04:25:16.489Z,2.70
2023-02-02T04:27:43.454Z,2.67
2023-02-02T04:30:11.654Z,2.60
2023-02-02T04:32:39.306Z,2.70
2023-02-02T04:35:07.156Z,2.58
2023-02-02T04:37:34.136Z,3.13
2023-02-02T04:40:01.094Z,2.72
2023-02-02T04:42:32.202Z,2.70
2023-02-02T04:44:59.404Z,3.08
2023-02-02T04:47:26.307Z,2.90
2023-02-02T04:49:53.192Z,2.72
2023-02-02T04:52:20.134Z,2.78
2023-02-02T04:54:47.072Z,3.03
2023-02-02T04:57:13.965Z,2.67
2023-02-02T04:59:42.594Z,3.08
2023-02-02T05:02:09.603Z,2.85
2023-02-02T05:04:36.606Z,3.30
2023-02-02T05:07:03.541Z,3.00
2023-02-02T05:09:30.503Z,2.55
2023-02-02T05:11:57.395Z,3.10
2023-02-02T05:14:24.345Z,3.00
2023-02-02T05:16:53.773Z,3.08
2023-02-02T05:19:20.750Z,2.92
2023-02-02T05:21:51.160Z,3.00
2023-02-02T05:24:18.472Z,3.08
2023-02-02T05:26:45.591Z,2.63
2023-02-02T05:29:12.657Z,2.20
2023-02-02T05:31:39.605Z,2.65
2023-02-02T05:34:11.422Z,2.45
2023-02-02T05:36:38.475Z,2.30
2023-02-02T05:39:06.794Z,2.40
2023-02-02T05:41:33.817Z,2.20
2023-02-02T05:44:01.139Z,2.75
2023-02-02T05:46:28.086Z,2.05
2023-02-02T05:48:55.080Z,2.60
2023-02-02T05:51:26.847Z,2.40
2023-02-02T05:53:53.847Z,2.42
2023-02-02T05:56:20.780Z,2.58
2023-02-02T05:58:49.851Z,2.35
2023-02-02T06:01:18.562Z,2.47
2023-02-02T06:03:45.663Z,2.25
2023-02-02T06:06:13.179Z,2.00
2023-02-02T06:08:41.467Z,3.03
2023-02-02T06:11:12.587Z,2.83
2023-02-02T06:13:44.257Z,2.17
2023-02-02T06:16:12.680Z,2.15
2023-02-02T06:18:39.705Z,2.20
2023-02-02T06:21:10.333Z,2.45
2023-02-02T06:23:38.345Z,2.05
2023-02-02T06:26:08.278Z,2.15
2023-02-02T06:28:35.183Z,2.00
2023-02-02T06:31:05.961Z,2.03
2023-02-02T06:33:33.489Z,1.92
2023-02-02T06:36:01.193Z,2.08
2023-02-02T06:38:28.311Z,1.95
2023-02-02T06:40:55.256Z,2.28
2023-02-02T06:43:23.935Z,1.92
2023-02-02T06:45:50.861Z,2.17
2023-02-02T06:48:17.833Z,1.85
2023-02-02T06:50:47.776Z,2.25
2023-02-02T06:53:14.747Z,2.30
2023-02-02T06:55:41.683Z,2.05
2023-02-02T06:58:08.958Z,2.13
2023-02-02T07:00:38.324Z,2.20
2023-02-02T07:03:07.232Z,2.15
2023-02-02T07:05:34.169Z,2.00
2023-02-02T07:08:01.075Z,2.13
2023-02-02T07:11:14.237Z,2.30
2023-02-02T07:13:14.966Z,2.10
2023-02-02T07:15:43.360Z,2.13
2023-02-02T07:18:10.479Z,2.22
2023-02-02T07:20:37.480Z,2.03
2023-02-02T07:23:04.814Z,2.10
2023-02-02T07:25:31.901Z,1.92
2023-02-02T07:28:01.243Z,2.03
2023-02-02T07:30:29.932Z,2.25
2023-02-02T07:32:58.441Z,2.20
2023-02-02T07:35:25.765Z,1.95
2023-02-02T07:37:53.635Z,2.17
2023-02-02T07:40:23.484Z,2.05
2023-02-02T07:42:50.721Z,2.00
2023-02-02T07:45:35.844Z,2.10
2023-02-02T07:48:04.769Z,1.83
2023-02-02T07:50:32.543Z,1.77
2023-02-02T07:53:00.631Z,2.05
2023-02-02T07:55:27.846Z,1.98
2023-02-02T07:57:58.831Z,2.00
2023-02-02T08:00:26.342Z,2.20
2023-02-02T08:02:56.177Z,1.90
2023-02-02T08:05:24.766Z,1.75
2023-02-02T08:07:51.842Z,1.40
2023-02-02T08:10:18.910Z,1.70
2023-02-02T08:12:45.825Z,1.95
2023-02-02T08:15:12.759Z,1.65
2023-02-02T08:17:39.746Z,1.70
2023-02-02T08:20:07.729Z,1.90
2023-02-02T08:22:36.166Z,1.65
2023-02-02T08:25:03.143Z,1.65
2023-02-02T08:27:30.095Z,1.98
2023-02-02T08:29:57.072Z,1.70
2023-02-02T08:32:23.992Z,1.70
2023-02-02T08:34:54.086Z,1.73
2023-02-02T08:37:21.033Z,1.80
2023-02-02T08:39:49.435Z,1.98
2023-02-02T08:42:16.369Z,1.63
2023-02-02T08:46:00.373Z,1.70
2023-02-02T08:47:30.618Z,1.80
2023-02-02T08:49:58.038Z,1.67
2023-02-02T08:52:25.926Z,1.55
2023-02-02T08:54:54.347Z,1.45
2023-02-02T08:57:21.296Z,1.50
2023-02-02T08:59:48.231Z,1.40
2023-02-02T09:02:15.239Z,1.70
2023-02-02T09:04:45.347Z,1.30
2023-02-02T09:07:12.421Z,1.38
2023-02-02T09:09:39.348Z,1.35
2023-02-02T09:12:10.878Z,1.15
2023-02-02T09:14:38.188Z,1.50
2023-02-02T09:17:05.104Z,1.35
2023-02-02T09:19:32.129Z,1.58
2023-02-02T09:21:59.727Z,1.45
2023-02-02T09:24:26.717Z,1.55
2023-02-02T09:26:53.670Z,1.15
2023-02-02T09:29:22.206Z,1.63
2023-02-02T09:31:49.296Z,1.52
2023-02-02T09:34:16.546Z,1.42
2023-02-02T09:36:44.469Z,1.50
2023-02-02T09:39:12.977Z,1.40
2023-02-02T09:41:55.952Z,1.35
2023-02-02T09:44:35.673Z,1.60
2023-02-02T09:47:12.484Z,1.45
2023-02-02T09:49:48.022Z,1.38
2023-02-02T09:52:18.755Z,1.08
2023-02-02T09:54:48.500Z,1.20
2023-02-02T09:57:20.369Z,1.00
2023-02-02T09:59:51.160Z,1.50
2023-02-02T10:02:22.166Z,1.45
2023-02-02T10:04:52.453Z,1.42
2023-02-02T10:07:23.982Z,1.17
2023-02-02T10:09:58.995Z,1.38
2023-02-02T10:12:33.851Z,1.38
2023-02-02T10:15:13.172Z,1.38
2023-02-02T10:17:46.976Z,1.50
2023-02-02T10:20:34.170Z,1.35
2023-02-02T10:23:21.518Z,1.20
2023-02-02T10:25:56.517Z,1.48
2023-02-02T10:28:41.218Z,1.23
2023-02-02T10:31:19.417Z,0.85
2023-02-02T10:33:56.087Z,1.13
2023-02-02T10:36:33.957Z,1.10
2023-02-02T10:39:09.750Z,1.15
2023-02-02T10:41:45.557Z,1.10
2023-02-02T10:44:24.325Z,1.05
2023-02-02T10:46:55.757Z,1.20
2023-02-02T10:49:28.771Z,1.08
2023-02-02T10:51:59.556Z,0.93
2023-02-02T10:54:56.376Z,0.90
2023-02-02T10:57:51.022Z,0.95
2023-02-02T11:00:25.315Z,1.00
2023-02-02T11:02:54.484Z,1.08
2023-02-02T11:05:41.665Z,1.10
2023-02-02T11:08:14.783Z,1.00
2023-02-02T11:10:43.321Z,1.00
2023-02-02T11:13:15.846Z,0.88
2023-02-02T11:15:42.894Z,1.00
2023-02-02T11:18:29.027Z,0.93
2023-02-02T11:20:57.302Z,0.88
2023-02-02T11:23:27.795Z,1.00
2023-02-02T11:26:00.783Z,1.10
2023-02-02T11:28:34.099Z,0.68
2023-02-02T11:31:01.979Z,1.20
2023-02-02T11:33:33.520Z,1.27
2023-02-02T11:36:01.860Z,1.00
2023-02-02T11:38:29.093Z,1.20
2023-02-02T11:41:00.996Z,1.17
2023-02-02T11:43:30.351Z,1.10
2023-02-02T11:46:03.066Z,0.90
2023-02-02T11:48:34.961Z,1.10
2023-02-02T11:51:03.023Z,1.17
2023-02-02T11:53:33.080Z,1.20
2023-02-02T11:56:02.528Z,1.00
2023-02-02T11:58:42.258Z,0.98
2023-02-02T12:01:24.742Z,0.95
2023-02-02T12:03:54.754Z,1.27
2023-02-02T12:06:24.059Z,1.30
2023-02-02T12:08:56.786Z,1.23
2023-02-02T12:11:39.361Z,1.10
2023-02-02T12:14:21.171Z,1.08
2023-02-02T12:17:04.327Z,1.60
2023-02-02T12:20:05.078Z,1.15
2023-02-02T12:22:45.710Z,1.42
2023-02-02T12:25:33.699Z,1.38
2023-02-02T12:28:06.290Z,1.50
2023-02-02T12:30:40.819Z,1.33
2023-02-02T12:33:21.080Z,1.40
2023-02-02T12:36:18.287Z,1.42
2023-02-02T12:39:03.374Z,1.50
2023-02-02T12:41:42.478Z,1.20
2023-02-02T12:44:15.480Z,1.40
2023-02-02T12:46:55.043Z,0.88
2023-02-02T12:49:35.553Z,1.35
2023-02-02T12:52:30.981Z,1.80
2023-02-02T12:55:28.846Z,1.83
2023-02-02T12:58:07.380Z,1.92
2023-02-02T13:00:53.392Z,2.20
2023-02-02T13:03:43.013Z,2.42
2023-02-02T13:06:24.942Z,2.30
2023-02-02T13:08:58.565Z,2.70
2023-02-02T13:11:35.509Z,2.97
2023-02-02T13:14:09.642Z,2.92
2023-02-02T13:16:38.216Z,4.47
2023-02-02T13:19:11.141Z,2.15
2023-02-02T13:21:39.565Z,1.90
2023-02-02T13:24:14.319Z,2.83
2023-02-02T13:26:44.478Z,2.85
2023-02-02T13:29:22.414Z,2.75
2023-02-02T13:31:56.093Z,5.07
2023-02-02T13:34:27.756Z,2.38
2023-02-02T13:36:59.130Z,2.28
2023-02-02T13:39:34.033Z,1.92
2023-02-02T13:42:02.941Z,1.95
2023-02-02T13:44:37.212Z,1.70
2023-02-02T13:47:08.866Z,2.42
2023-02-02T13:49:41.024Z,2.00
2023-02-02T13:52:44.330Z,2.10
2023-02-02T13:55:47.531Z,2.08
2023-02-02T13:58:48.449Z,1.80
2023-02-02T14:01:15.846Z,1.13
2023-02-02T14:03:44.833Z,1.20
2023-02-02T14:06:15.241Z,1.23
2023-02-02T14:08:46.767Z,1.40
2023-02-02T14:11:21.919Z,1.55
2023-02-02T14:14:11.147Z,1.40
2023-02-02T14:16:50.152Z,1.10
2023-02-02T14:19:42.063Z,0.50
2023-02-02T14:22:20.739Z,0.60
2023-02-02T14:24:50.258Z,0.63
2023-02-02T14:30:38.784Z,0.60
2023-02-02T14:33:40.065Z,0.60
2023-02-02T14:36:13.983Z,0.63
2023-02-02T14:39:09.971Z,1.60
2023-02-02T14:42:24.036Z,0.73
2023-02-02T14:45:22.474Z,0.70
2023-02-02T14:47:53.761Z,0.60
2023-02-02T14:50:32.311Z,0.68
2023-02-02T14:53:03.021Z,0.43
2023-02-02T14:55:31.098Z,0.80
2023-02-02T14:58:01.079Z,0.50
2023-02-02T15:00:31.218Z,0.47
2023-02-02T15:03:34.160Z,0.60
2023-02-02T15:06:13.157Z,0.55
2023-02-02T15:08:40.304Z,0.60
2023-02-02T15:11:28.735Z,0.82
2023-02-02T15:14:13.533Z,0.80
2023-02-02T15:16:42.646Z,0.90
2023-02-02T15:19:32.527Z,0.65
2023-02-02T15:22:06.904Z,0.77
2023-02-02T15:24:37.650Z,0.90
2023-02-02T15:27:08.773Z,0.80
2023-02-02T15:29:42.717Z,0.65
2023-02-02T15:32:16.392Z,0.88
2023-02-02T15:34:48.593Z,0.80
2023-02-02T15:37:20.579Z,0.75
2023-02-02T15:39:49.912Z,0.60
2023-02-02T15:42:49.216Z,0.80
2023-02-02T15:45:35.501Z,0.60
2023-02-02T15:48:09.003Z,0.60
2023-02-02T15:50:39.556Z,0.90
2023-02-02T15:53:06.730Z,0.60
2023-02-02T15:55:35.733Z,0.57
2023-02-02T15:58:04.005Z,0.50
2023-02-02T16:00:33.569Z,0.40
2023-02-02T16:03:04.931Z,0.47
2023-02-02T16:05:47.371Z,0.57
2023-02-02T16:08:18.100Z,0.52
2023-02-02T16:10:46.658Z,0.60
2023-02-02T16:13:26.444Z,0.60
2023-02-02T16:15:59.023Z,0.50
2023-02-02T16:18:26.732Z,0.68
2023-02-02T16:20:57.635Z,0.57
2023-02-02T16:23:29.581Z,0.65
2023-02-02T16:25:59.441Z,0.73
2023-02-02T16:28:26.957Z,0.70
2023-02-02T16:30:54.325Z,1.00
2023-02-02T16:33:35.543Z,0.93
2023-02-02T16:36:23.982Z,0.90
2023-02-02T16:38:52.963Z,0.80
2023-02-02T16:41:28.913Z,0.93
2023-02-02T16:43:56.119Z,1.10
2023-02-02T16:46:42.788Z,1.05
2023-02-02T16:49:16.006Z,1.40
2023-02-02T16:51:45.456Z,1.20
2023-02-02T16:54:19.535Z,1.17
2023-02-02T16:56:48.958Z,1.30
2023-02-02T16:59:22.038Z,1.00
2023-02-02T17:01:52.322Z,1.15
2023-02-02T17:04:23.402Z,1.20
2023-02-02T17:06:53.542Z,1.30
2023-02-02T17:09:35.204Z,1.25
2023-02-02T17:12:09.371Z,1.48
2023-02-02T17:14:52.115Z,1.27
2023-02-02T17:17:19.256Z,1.25
2023-02-02T17:19:47.867Z,1.23
2023-02-02T17:22:18.178Z,1.02
2023-02-02T17:24:49.755Z,1.30
2023-02-02T17:27:18.883Z,1.30
2023-02-02T17:29:46.300Z,1.63
2023-02-02T17:32:14.328Z,1.58
2023-02-02T17:34:41.337Z,1.50
2023-02-02T17:37:08.372Z,1.77
2023-02-02T17:39:37.032Z,2.00
2023-02-02T17:42:04.365Z,1.60
2023-02-02T17:44:31.481Z,1.50
2023-02-02T17:46:58.392Z,1.63
2023-02-02T17:49:25.342Z,1.23
2023-02-02T17:51:52.281Z,1.50
2023-02-02T17:54:19.308Z,1.83
2023-02-02T17:56:47.692Z,1.52
2023-02-02T17:59:14.589Z,1.40
2023-02-02T18:01:41.956Z,1.55
2023-02-02T18:04:12.312Z,1.60
2023-02-02T18:06:40.092Z,1.45
2023-02-02T18:09:07.471Z,1.77
2023-02-02T18:11:34.455Z,1.63
2023-02-02T18:14:04.315Z,2.08
2023-02-02T18:16:31.991Z,1.88
2023-02-02T18:18:58.945Z,1.70
2023-02-02T18:21:29.775Z,1.92
2023-02-02T18:23:57.021Z,1.75
2023-02-02T18:26:24.032Z,1.67
2023-02-02T18:28:51.998Z,1.90
2023-02-02T18:31:23.835Z,1.85
2023-02-02T18:33:51.114Z,2.00
2023-02-02T18:36:20.744Z,1.60
2023-02-02T18:38:49.261Z,1.63
2023-02-02T18:41:17.572Z,1.85
2023-02-02T18:43:45.698Z,1.67
2023-02-02T18:46:15.074Z,1.83
2023-02-02T18:48:43.700Z,1.85
2023-02-02T18:51:16.602Z,2.00
2023-02-02T18:53:44.274Z,1.60
2023-02-02T18:56:12.866Z,1.67
2023-02-02T18:58:40.677Z,2.00
2023-02-02T19:01:08.535Z,2.00
2023-02-02T19:03:36.752Z,1.83
2023-02-02T19:06:25.817Z,1.83
2023-02-02T19:08:53.049Z,1.80
2023-02-02T19:11:22.209Z,1.67
2023-02-02T19:13:49.658Z,2.40
2023-02-02T19:16:22.847Z,2.08
2023-02-02T19:18:50.243Z,1.88
2023-02-02T19:21:18.542Z,1.65
2023-02-02T19:23:46.226Z,2.53
2023-02-02T19:26:21.896Z,2.33
2023-02-02T19:28:49.073Z,2.20
2023-02-02T19:31:16.359Z,1.85
2023-02-02T19:33:46.291Z,2.08
2023-02-02T19:36:20.181Z,1.90
2023-02-02T19:38:49.025Z,1.85
2023-02-02T19:41:20.101Z,2.03
2023-02-02T19:43:47.946Z,2.10
2023-02-02T19:46:18.775Z,2.00
2023-02-02T19:48:51.728Z,2.10
2023-02-02T19:51:39.724Z,2.33
2023-02-02T19:54:26.955Z,2.38
2023-02-02T19:56:57.497Z,2.63
2023-02-02T19:59:26.666Z,2.47
2023-02-02T20:01:55.266Z,3.28
2023-02-02T20:04:22.575Z,3.35
2023-02-02T20:06:59.196Z,3.35
2023-02-02T20:09:34.218Z,2.15
2023-02-02T20:12:01.269Z,3.37
2023-02-02T20:14:32.146Z,3.28
2023-02-02T20:17:02.589Z,2.65
2023-02-02T20:19:33.602Z,2.08
2023-02-02T20:22:03.124Z,2.47
2023-02-02T20:24:36.307Z,2.53
2023-02-02T20:27:13.386Z,2.63
2023-02-02T20:29:42.541Z,2.42
2023-02-02T20:32:21.151Z,2.28
2023-02-02T20:34:49.091Z,2.55
2023-02-02T20:37:22.922Z,2.70
2023-02-02T20:39:54.624Z,2.53
2023-02-02T20:42:22.078Z,2.50
2023-02-02T20:44:49.167Z,2.65
2023-02-02T20:47:16.185Z,2.60
2023-02-02T20:49:44.478Z,2.58
2023-02-02T20:52:18.231Z,2.88
2023-02-02T20:54:46.545Z,2.45
2023-02-02T20:57:13.789Z,2.30
2023-02-02T20:59:40.761Z,2.78
2023-02-02T21:02:08.211Z,2.83
2023-02-02T21:04:35.172Z,2.92
2023-02-02T21:07:02.147Z,2.97
2023-02-02T21:09:29.063Z,3.22
2023-02-02T21:11:57.366Z,2.60
2023-02-02T21:14:24.259Z,2.60
2023-02-02T21:16:55.349Z,2.30
2023-02-02T21:21:53.690Z,2.88
2023-02-02T21:24:20.592Z,3.20
2023-02-02T21:26:52.203Z,2.55
2023-02-02T21:29:20.867Z,2.50
2023-02-02T21:31:48.121Z,2.30
2023-02-02T21:34:17.340Z,2.50
2023-02-02T21:36:46.343Z,2.50
2023-02-02T21:39:21.595Z,2.55
2023-02-02T21:44:18.038Z,2.13
2023-02-02T21:46:48.627Z,2.40
2023-02-02T21:49:22.723Z,3.10
2023-02-02T21:51:50.191Z,2.28
2023-02-02T21:54:22.697Z,2.20
2023-02-02T21:56:50.720Z,2.45
2023-02-02T21:59:19.536Z,2.30
2023-02-02T22:01:49.473Z,2.60
2023-02-02T22:04:20.055Z,2.22
2023-02-02T22:06:48.756Z,2.10
2023-02-02T22:09:19.176Z,2.75
2023-02-02T22:11:50.001Z,2.40
2023-02-02T22:14:25.103Z,2.10
2023-02-02T22:16:57.035Z,2.63
2023-02-02T22:19:26.752Z,2.05
2023-02-02T22:21:57.936Z,2.05
2023-02-02T22:24:25.405Z,2.33
2023-02-02T22:26:52.419Z,2.63
2023-02-02T22:29:21.377Z,2.05
2023-02-02T22:31:48.550Z,2.10
2023-02-02T22:34:16.870Z,2.20
2023-02-02T22:36:43.835Z,2.45
2023-02-02T22:39:10.941Z,2.38
2023-02-02T22:41:37.885Z,2.17
2023-02-02T22:44:06.008Z,2.25
2023-02-02T22:46:33.035Z,2.03
2023-02-02T22:49:00.000Z,2.58
2023-02-02T22:51:28.369Z,2.60
2023-02-02T22:53:55.345Z,2.15
2023-02-02T22:56:26.310Z,2.95
2023-02-02T22:58:53.241Z,2.90
2023-02-02T23:01:20.325Z,2.63
2023-02-02T23:03:48.659Z,2.38
2023-02-02T23:06:15.727Z,2.60
2023-02-02T23:08:44.371Z,2.47
2023-02-02T23:11:11.376Z,2.42
2023-02-02T23:13:38.345Z,2.67
2023-02-02T23:16:06.112Z,2.53
2023-02-02T23:18:33.230Z,2.05
2023-02-02T23:21:00.478Z,2.28
2023-02-02T23:23:27.410Z,2.58
2023-02-02T23:25:55.900Z,2.60
2023-02-02T23:28:22.907Z,2.50
2023-02-02T23:30:51.030Z,2.53
2023-02-02T23:33:17.988Z,2.63
2023-02-02T23:35:45.189Z,2.50
2023-02-02T23:38:13.463Z,2.65
2023-02-02T23:40:40.373Z,2.85
2023-02-02T23:43:08.844Z,2.63
2023-02-02T23:45:36.490Z,2.63
2023-02-02T23:48:03.494Z,2.20
2023-02-02T23:50:30.539Z,2.80
2023-02-02T23:52:57.986Z,2.65
2023-02-02T23:55:24.951Z,3.10
2023-02-02T23:57:52.022Z,2.92
